Idre Storbo, Sweden

2:34 AM CEST on August 31, 2014 (GMT +0200)
Roros | Change Station
CLOSE
Current Station
Airport
Location: Roros Lufthavn,
Elevation: 2054 ft
Nearby Weather Stations

Elev 2054 ft 62.58 °N, 11.34 °E | Updated 14 minutes ago

Overcast
Overcast
48 °F
Feels Like 48 °F
N
9
Wind Variable Wind from SE

Today
High -- | Low -- °F
--% Chance of Precip.
Yesterday
High -- | Low -- °F
Precip. -- in
5:57 AM 8:23 PM
Waxing Crescent, 26% visible
Pressure 30.09 in
Visibility 6.2 miles
Clouds Overcast 4200 ft
Dew Point 41 °F
Humidity 76%
Rainfall 0.00 in
Snow Depth Not available.
UV 0 out of 12
Pollen Not available.
Air Quality Not available.
Flu Activity Not available.
METAR ENRO 310020Z AUTO 14008KT 9999NDV OVC042/// 09/05 Q1019

More Conditions Fewer Conditions

Pressure 30.09 in
Visibility 6.2 miles
Clouds Overcast 4200 ft
Dew Point 41 °F
Humidity 76%
Rainfall 0.00 in
Snow Depth Not available.
UV 0 out of 12
Pollen Not available.
Air Quality Not available.
Flu Activity Not available.
METAR ENRO 310020Z AUTO 14008KT 9999NDV OVC042/// 09/05 Q1019

More Conditions Fewer Conditions

10-Day Weather Forecast

Almanac

Astronomy

Aug. 31, 2014 Rise Set
Actual Time 5:57 AM CEST 8:23 PM CEST
Civil Twilight 5:08 AM CEST 9:11 PM CEST
Nautical Twilight 4:02 AM CEST 10:16 PM CEST
Astronomical Twilight 2:23 AM CEST 11:50 PM CEST
Moon 1:12 PM CEST 9:37 PM CEST
Length of Visible Light 16h 03m
Length of Day
14h 25m
Tomorrow will be 5m 49s shorter.
Waxing Crescent, 26% of the Moon is Illuminated
Aug 30
Waxing Crescent
Sep 2
First Quarter
Sep 8
Full
Sep 15
Last Quarter
Sep 24
New

Yesterday's Extremes

Country Highs Country Lows

Community

WunderPhotos

Upload Photos

1,748,706 photos uploaded!

Nearby

Snow Depth

Not available.

Earthquake Activity

City Distance Mag. Time & Date
No recent earthquake activity has been reported nearby.
Minimum magnitude displayed is 2.5.

Coastal Water Temperatures

Place Temperature
No Stations Reporting

Nearby Weather Stations